sensor_id;sensor_type;location;lat;lon;timestamp;temperature;humidity
7720;DHT22;3902;49.474;8.616;2023-06-24T00:00:28;21.10;99.90
7720;DHT22;3902;49.474;8.616;2023-06-24T00:02:54;21.10;99.90
7720;DHT22;3902;49.474;8.616;2023-06-24T00:05:19;21.10;99.90
7720;DHT22;3902;49.474;8.616;2023-06-24T00:07:45;21.00;99.90
7720;DHT22;3902;49.474;8.616;2023-06-24T00:10:14;21.00;99.90
7720;DHT22;3902;49.474;8.616;2023-06-24T00:12:39;21.00;99.90
7720;DHT22;3902;49.474;8.616;2023-06-24T00:15:07;21.00;99.90
7720;DHT22;3902;49.474;8.616;2023-06-24T00:17:35;21.00;99.90
7720;DHT22;3902;49.474;8.616;2023-06-24T00:20:01;20.90;99.90
7720;DHT22;3902;49.474;8.616;2023-06-24T00:22:26;21.00;99.90
7720;DHT22;3902;49.474;8.616;2023-06-24T00:24:52;20.90;99.90
7720;DHT22;3902;49.474;8.616;2023-06-24T00:27:17;20.90;99.90
7720;DHT22;3902;49.474;8.616;2023-06-24T00:29:43;20.90;99.90
7720;DHT22;3902;49.474;8.616;2023-06-24T00:32:08;20.80;99.90
7720;DHT22;3902;49.474;8.616;2023-06-24T00:34:34;20.80;99.90
7720;DHT22;3902;49.474;8.616;2023-06-24T00:36:59;20.80;99.90
7720;DHT22;3902;49.474;8.616;2023-06-24T00:39:25;20.80;99.90
7720;DHT22;3902;49.474;8.616;2023-06-24T00:41:51;20.80;99.90
7720;DHT22;3902;49.474;8.616;2023-06-24T00:44:16;20.70;99.90
7720;DHT22;3902;49.474;8.616;2023-06-24T00:46:42;20.70;99.90
7720;DHT22;3902;49.474;8.616;2023-06-24T00:49:08;20.70;99.90
7720;DHT22;3902;49.474;8.616;2023-06-24T00:51:33;20.70;99.90
7720;DHT22;3902;49.474;8.616;2023-06-24T00:54:01;20.60;99.90
7720;DHT22;3902;49.474;8.616;2023-06-24T00:56:33;20.60;99.90
7720;DHT22;3902;49.474;8.616;2023-06-24T00:59:00;20.50;99.90
7720;DHT22;3902;49.474;8.616;2023-06-24T01:01:28;20.50;99.90
7720;DHT22;3902;49.474;8.616;2023-06-24T01:03:57;20.50;99.90
7720;DHT22;3902;49.474;8.616;2023-06-24T01:06:22;20.50;99.90
7720;DHT22;3902;49.474;8.616;2023-06-24T01:08:48;20.50;99.90
7720;DHT22;3902;49.474;8.616;2023-06-24T01:11:16;20.50;99.90
7720;DHT22;3902;49.474;8.616;2023-06-24T01:13:42;20.50;99.90
7720;DHT22;3902;49.474;8.616;2023-06-24T01:16:18;20.50;99.90
7720;DHT22;3902;49.474;8.616;2023-06-24T01:18:52;20.40;99.90
7720;DHT22;3902;49.474;8.616;2023-06-24T01:21:50;20.40;99.90
7720;DHT22;3902;49.474;8.616;2023-06-24T01:27:45;20.30;99.90
7720;DHT22;3902;49.474;8.616;2023-06-24T01:33:18;20.30;99.90
7720;DHT22;3902;49.474;8.616;2023-06-24T01:35:47;20.20;99.90
7720;DHT22;3902;49.474;8.616;2023-06-24T01:38:24;20.20;99.90
7720;DHT22;3902;49.474;8.616;2023-06-24T01:40:52;20.10;99.90
7720;DHT22;3902;49.474;8.616;2023-06-24T01:43:22;20.10;99.90
7720;DHT22;3902;49.474;8.616;2023-06-24T01:45:50;20.10;99.90
7720;DHT22;3902;49.474;8.616;2023-06-24T01:48:23;20.10;99.90
7720;DHT22;3902;49.474;8.616;2023-06-24T01:50:57;20.00;99.90
7720;DHT22;3902;49.474;8.616;2023-06-24T01:53:24;20.00;99.90
7720;DHT22;3902;49.474;8.616;2023-06-24T01:55:53;20.00;99.90
7720;DHT22;3902;49.474;8.616;2023-06-24T01:58:21;20.00;99.90
7720;DHT22;3902;49.474;8.616;2023-06-24T02:00:47;20.00;99.90
7720;DHT22;3902;49.474;8.616;2023-06-24T02:03:15;19.90;99.90
7720;DHT22;3902;49.474;8.616;2023-06-24T02:05:41;19.90;99.90
7720;DHT22;3902;49.474;8.616;2023-06-24T02:08:09;19.90;99.90
7720;DHT22;3902;49.474;8.616;2023-06-24T02:10:39;19.80;99.90
7720;DHT22;3902;49.474;8.616;2023-06-24T02:13:05;19.90;99.90
7720;DHT22;3902;49.474;8.616;2023-06-24T02:15:33;19.80;99.90
7720;DHT22;3902;49.474;8.616;2023-06-24T02:18:02;19.80;99.90
7720;DHT22;3902;49.474;8.616;2023-06-24T02:20:31;19.80;99.90
7720;DHT22;3902;49.474;8.616;2023-06-24T02:22:58;19.80;99.90
7720;DHT22;3902;49.474;8.616;2023-06-24T02:25:24;19.80;99.90
7720;DHT22;3902;49.474;8.616;2023-06-24T02:27:52;19.70;99.90
7720;DHT22;3902;49.474;8.616;2023-06-24T02:30:19;19.70;99.90
7720;DHT22;3902;49.474;8.616;2023-06-24T02:32:45;19.70;99.90
7720;DHT22;3902;49.474;8.616;2023-06-24T02:35:11;19.70;99.90
7720;DHT22;3902;49.474;8.616;2023-06-24T02:37:37;19.70;99.90
7720;DHT22;3902;49.474;8.616;2023-06-24T02:40:03;19.70;99.90
7720;DHT22;3902;49.474;8.616;2023-06-24T02:42:30;19.60;99.90
7720;DHT22;3902;49.474;8.616;2023-06-24T02:44:56;19.60;99.90
7720;DHT22;3902;49.474;8.616;2023-06-24T02:47:22;19.60;99.90
7720;DHT22;3902;49.474;8.616;2023-06-24T02:49:48;19.60;99.90
7720;DHT22;3902;49.474;8.616;2023-06-24T02:52:15;19.60;99.90
7720;DHT22;3902;49.474;8.616;2023-06-24T02:54:41;19.50;99.90
7720;DHT22;3902;49.474;8.616;2023-06-24T02:57:08;19.50;99.90
7720;DHT22;3902;49.474;8.616;2023-06-24T02:59:33;19.50;99.90
7720;DHT22;3902;49.474;8.616;2023-06-24T03:01:59;19.50;99.90
7720;DHT22;3902;49.474;8.616;2023-06-24T03:04:25;19.50;99.90
7720;DHT22;3902;49.474;8.616;2023-06-24T03:06:51;19.50;99.90
7720;DHT22;3902;49.474;8.616;2023-06-24T03:09:18;19.40;99.90
7720;DHT22;3902;49.474;8.616;2023-06-24T03:11:44;19.40;99.90
7720;DHT22;3902;49.474;8.616;2023-06-24T03:14:10;19.40;99.90
7720;DHT22;3902;49.474;8.616;2023-06-24T03:16:36;19.40;99.90
7720;DHT22;3902;49.474;8.616;2023-06-24T03:19:04;19.30;99.90
7720;DHT22;3902;49.474;8.616;2023-06-24T03:21:29;19.40;99.90
7720;DHT22;3902;49.474;8.616;2023-06-24T03:23:55;19.30;99.90
7720;DHT22;3902;49.474;8.616;2023-06-24T03:26:20;19.30;99.90
7720;DHT22;3902;49.474;8.616;2023-06-24T03:28:46;19.30;99.90
7720;DHT22;3902;49.474;8.616;2023-06-24T03:31:13;19.30;99.90
7720;DHT22;3902;49.474;8.616;2023-06-24T03:33:42;19.30;99.90
7720;DHT22;3902;49.474;8.616;2023-06-24T03:36:10;19.30;99.90
7720;DHT22;3902;49.474;8.616;2023-06-24T03:38:36;19.30;99.90
7720;DHT22;3902;49.474;8.616;2023-06-24T03:41:01;19.20;99.90
7720;DHT22;3902;49.474;8.616;2023-06-24T03:43:27;19.20;99.90
7720;DHT22;3902;49.474;8.616;2023-06-24T03:45:52;19.20;99.90
7720;DHT22;3902;49.474;8.616;2023-06-24T03:48:18;19.20;99.90
7720;DHT22;3902;49.474;8.616;2023-06-24T03:50:43;19.20;99.90
7720;DHT22;3902;49.474;8.616;2023-06-24T03:53:09;19.20;99.90
7720;DHT22;3902;49.474;8.616;2023-06-24T03:55:34;19.20;99.90
7720;DHT22;3902;49.474;8.616;2023-06-24T03:58:00;19.20;99.90
7720;DHT22;3902;49.474;8.616;2023-06-24T04:00:26;19.20;99.90
7720;DHT22;3902;49.474;8.616;2023-06-24T04:02:51;19.20;99.90
7720;DHT22;3902;49.474;8.616;2023-06-24T04:05:19;19.20;99.90
7720;DHT22;3902;49.474;8.616;2023-06-24T04:07:45;19.20;99.90
7720;DHT22;3902;49.474;8.616;2023-06-24T04:10:12;19.20;99.90
7720;DHT22;3902;49.474;8.616;2023-06-24T04:12:38;19.20;99.90
7720;DHT22;3902;49.474;8.616;2023-06-24T04:15:04;19.20;99.90
7720;DHT22;3902;49.474;8.616;2023-06-24T04:17:30;19.10;99.90
7720;DHT22;3902;49.474;8.616;2023-06-24T04:19:56;19.10;99.90
7720;DHT22;3902;49.474;8.616;2023-06-24T04:22:21;19.10;99.90
7720;DHT22;3902;49.474;8.616;2023-06-24T04:24:47;19.10;99.90
7720;DHT22;3902;49.474;8.616;2023-06-24T04:27:13;19.20;99.90
7720;DHT22;3902;49.474;8.616;2023-06-24T04:29:38;19.10;99.90
7720;DHT22;3902;49.474;8.616;2023-06-24T04:32:04;19.20;99.90
7720;DHT22;3902;49.474;8.616;2023-06-24T04:34:29;19.10;99.90
7720;DHT22;3902;49.474;8.616;2023-06-24T04:36:55;19.20;99.90
7720;DHT22;3902;49.474;8.616;2023-06-24T04:39:21;19.20;99.90
7720;DHT22;3902;49.474;8.616;2023-06-24T04:41:46;19.20;99.90
7720;DHT22;3902;49.474;8.616;2023-06-24T04:44:12;19.20;99.90
7720;DHT22;3902;49.474;8.616;2023-06-24T04:46:38;19.30;99.90
7720;DHT22;3902;49.474;8.616;2023-06-24T04:49:05;19.30;99.90
7720;DHT22;3902;49.474;8.616;2023-06-24T04:51:31;19.30;99.90
7720;DHT22;3902;49.474;8.616;2023-06-24T04:53:57;19.30;99.90
7720;DHT22;3902;49.474;8.616;2023-06-24T04:56:22;19.30;99.90
7720;DHT22;3902;49.474;8.616;2023-06-24T04:58:48;19.30;99.90
7720;DHT22;3902;49.474;8.616;2023-06-24T05:01:14;19.30;99.90
7720;DHT22;3902;49.474;8.616;2023-06-24T05:03:39;19.40;99.90
7720;DHT22;3902;49.474;8.616;2023-06-24T05:06:05;19.40;99.90
7720;DHT22;3902;49.474;8.616;2023-06-24T05:08:31;19.40;99.90
7720;DHT22;3902;49.474;8.616;2023-06-24T05:10:56;19.40;99.90
7720;DHT22;3902;49.474;8.616;2023-06-24T05:13:23;19.50;99.90
7720;DHT22;3902;49.474;8.616;2023-06-24T05:15:49;19.50;99.90
7720;DHT22;3902;49.474;8.616;2023-06-24T05:18:14;19.50;99.90
7720;DHT22;3902;49.474;8.616;2023-06-24T05:20:40;19.50;99.90
7720;DHT22;3902;49.474;8.616;2023-06-24T05:23:05;19.60;99.90
7720;DHT22;3902;49.474;8.616;2023-06-24T05:25:31;19.50;99.90
7720;DHT22;3902;49.474;8.616;2023-06-24T05:27:57;19.60;99.90
7720;DHT22;3902;49.474;8.616;2023-06-24T05:30:23;19.60;99.90
7720;DHT22;3902;49.474;8.616;2023-06-24T05:32:48;19.70;99.90
7720;DHT22;3902;49.474;8.616;2023-06-24T05:35:14;19.70;99.90
7720;DHT22;3902;49.474;8.616;2023-06-24T05:37:39;19.70;99.90
7720;DHT22;3902;49.474;8.616;2023-06-24T05:40:05;19.80;99.90
7720;DHT22;3902;49.474;8.616;2023-06-24T05:42:32;19.80;99.90
7720;DHT22;3902;49.474;8.616;2023-06-24T05:44:57;19.90;99.90
7720;DHT22;3902;49.474;8.616;2023-06-24T05:47:23;19.90;99.90
7720;DHT22;3902;49.474;8.616;2023-06-24T05:49:48;19.90;99.90
7720;DHT22;3902;49.474;8.616;2023-06-24T05:52:14;19.90;99.90
7720;DHT22;3902;49.474;8.616;2023-06-24T05:54:39;20.00;99.90
7720;DHT22;3902;49.474;8.616;2023-06-24T05:57:05;20.00;99.90
7720;DHT22;3902;49.474;8.616;2023-06-24T05:59:34;20.00;99.90
7720;DHT22;3902;49.474;8.616;2023-06-24T06:02:00;20.10;99.90
7720;DHT22;3902;49.474;8.616;2023-06-24T06:04:27;20.10;99.90
7720;DHT22;3902;49.474;8.616;2023-06-24T06:06:52;20.20;99.90
7720;DHT22;3902;49.474;8.616;2023-06-24T06:09:18;20.20;99.90
7720;DHT22;3902;49.474;8.616;2023-06-24T06:11:43;20.20;99.90
7720;DHT22;3902;49.474;8.616;2023-06-24T06:14:09;20.30;99.90
7720;DHT22;3902;49.474;8.616;2023-06-24T06:16:34;20.30;99.90
7720;DHT22;3902;49.474;8.616;2023-06-24T06:19:00;20.30;99.90
7720;DHT22;3902;49.474;8.616;2023-06-24T06:21:25;20.40;99.90
7720;DHT22;3902;49.474;8.616;2023-06-24T06:23:51;20.40;99.90
7720;DHT22;3902;49.474;8.616;2023-06-24T06:26:16;20.40;99.90
7720;DHT22;3902;49.474;8.616;2023-06-24T06:28:42;20.50;99.90
7720;DHT22;3902;49.474;8.616;2023-06-24T06:31:08;20.50;99.90
7720;DHT22;3902;49.474;8.616;2023-06-24T06:33:33;20.50;99.90
7720;DHT22;3902;49.474;8.616;2023-06-24T06:35:59;20.60;99.90
7720;DHT22;3902;49.474;8.616;2023-06-24T06:38:25;20.60;99.90
7720;DHT22;3902;49.474;8.616;2023-06-24T06:40:50;20.70;99.90
7720;DHT22;3902;49.474;8.616;2023-06-24T06:43:16;20.70;99.90
7720;DHT22;3902;49.474;8.616;2023-06-24T06:45:41;20.70;99.90
7720;DHT22;3902;49.474;8.616;2023-06-24T06:48:07;20.70;99.90
7720;DHT22;3902;49.474;8.616;2023-06-24T06:50:34;20.80;99.90
7720;DHT22;3902;49.474;8.616;2023-06-24T06:53:00;20.80;99.90
7720;DHT22;3902;49.474;8.616;2023-06-24T06:55:26;20.90;99.90
7720;DHT22;3902;49.474;8.616;2023-06-24T06:57:52;20.90;99.90
7720;DHT22;3902;49.474;8.616;2023-06-24T07:00:18;20.90;99.90
7720;DHT22;3902;49.474;8.616;2023-06-24T07:02:43;21.00;99.90
7720;DHT22;3902;49.474;8.616;2023-06-24T07:05:09;21.00;99.90
7720;DHT22;3902;49.474;8.616;2023-06-24T07:07:37;21.00;99.90
7720;DHT22;3902;49.474;8.616;2023-06-24T07:10:03;21.10;99.90
7720;DHT22;3902;49.474;8.616;2023-06-24T07:12:28;21.10;99.90
7720;DHT22;3902;49.474;8.616;2023-06-24T07:14:54;21.20;99.90
7720;DHT22;3902;49.474;8.616;2023-06-24T07:17:19;21.20;99.90
7720;DHT22;3902;49.474;8.616;2023-06-24T07:19:45;21.20;99.90
7720;DHT22;3902;49.474;8.616;2023-06-24T07:22:11;21.20;99.90
7720;DHT22;3902;49.474;8.616;2023-06-24T07:24:36;21.30;99.90
7720;DHT22;3902;49.474;8.616;2023-06-24T07:27:02;21.40;99.90
7720;DHT22;3902;49.474;8.616;2023-06-24T07:29:28;21.40;99.90
7720;DHT22;3902;49.474;8.616;2023-06-24T07:31:54;21.40;99.90
7720;DHT22;3902;49.474;8.616;2023-06-24T07:34:19;21.50;99.90
7720;DHT22;3902;49.474;8.616;2023-06-24T07:36:45;21.50;99.90
7720;DHT22;3902;49.474;8.616;2023-06-24T07:39:10;21.50;99.90
7720;DHT22;3902;49.474;8.616;2023-06-24T07:41:36;21.60;99.90
7720;DHT22;3902;49.474;8.616;2023-06-24T07:44:01;21.60;99.90
7720;DHT22;3902;49.474;8.616;2023-06-24T07:46:27;21.60;99.90
7720;DHT22;3902;49.474;8.616;2023-06-24T07:48:53;21.70;99.90
7720;DHT22;3902;49.474;8.616;2023-06-24T07:51:18;21.70;99.90
7720;DHT22;3902;49.474;8.616;2023-06-24T07:53:44;21.70;99.90
7720;DHT22;3902;49.474;8.616;2023-06-24T07:56:10;21.80;99.90
7720;DHT22;3902;49.474;8.616;2023-06-24T07:58:35;21.80;99.90
7720;DHT22;3902;49.474;8.616;2023-06-24T08:01:03;21.90;99.90
7720;DHT22;3902;49.474;8.616;2023-06-24T08:03:29;21.90;99.90
7720;DHT22;3902;49.474;8.616;2023-06-24T08:05:54;22.00;99.90
7720;DHT22;3902;49.474;8.616;2023-06-24T08:08:21;22.10;99.90
7720;DHT22;3902;49.474;8.616;2023-06-24T08:10:47;22.20;99.90
7720;DHT22;3902;49.474;8.616;2023-06-24T08:13:13;22.30;99.90
7720;DHT22;3902;49.474;8.616;2023-06-24T08:15:38;22.40;99.90
7720;DHT22;3902;49.474;8.616;2023-06-24T08:18:04;22.40;99.90
7720;DHT22;3902;49.474;8.616;2023-06-24T08:20:29;22.40;99.90
7720;DHT22;3902;49.474;8.616;2023-06-24T08:22:55;22.40;99.90
7720;DHT22;3902;49.474;8.616;2023-06-24T08:25:20;22.50;99.90
7720;DHT22;3902;49.474;8.616;2023-06-24T08:31:08;22.60;99.90
7720;DHT22;3902;49.474;8.616;2023-06-24T08:33:36;22.80;99.90
7720;DHT22;3902;49.474;8.616;2023-06-24T08:36:02;22.80;99.90
7720;DHT22;3902;49.474;8.616;2023-06-24T08:38:27;22.90;99.90
7720;DHT22;3902;49.474;8.616;2023-06-24T08:40:53;22.90;99.90
7720;DHT22;3902;49.474;8.616;2023-06-24T08:43:18;22.90;99.90
7720;DHT22;3902;49.474;8.616;2023-06-24T08:45:45;23.00;99.90
7720;DHT22;3902;49.474;8.616;2023-06-24T08:48:10;23.10;99.90
7720;DHT22;3902;49.474;8.616;2023-06-24T08:50:43;23.20;99.90
7720;DHT22;3902;49.474;8.616;2023-06-24T08:53:09;23.20;99.90
7720;DHT22;3902;49.474;8.616;2023-06-24T08:55:43;23.40;99.90
7720;DHT22;3902;49.474;8.616;2023-06-24T08:58:10;23.30;99.90
7720;DHT22;3902;49.474;8.616;2023-06-24T09:00:36;23.40;99.90
7720;DHT22;3902;49.474;8.616;2023-06-24T09:03:02;23.50;99.90
7720;DHT22;3902;49.474;8.616;2023-06-24T09:05:27;23.60;99.90
7720;DHT22;3902;49.474;8.616;2023-06-24T09:07:53;23.60;99.90
7720;DHT22;3902;49.474;8.616;2023-06-24T09:10:35;23.70;99.90
7720;DHT22;3902;49.474;8.616;2023-06-24T09:13:02;23.70;99.90
7720;DHT22;3902;49.474;8.616;2023-06-24T09:15:35;23.70;99.90
7720;DHT22;3902;49.474;8.616;2023-06-24T09:18:02;23.80;99.90
7720;DHT22;3902;49.474;8.616;2023-06-24T09:20:29;23.90;99.90
7720;DHT22;3902;49.474;8.616;2023-06-24T09:23:04;24.00;99.90
7720;DHT22;3902;49.474;8.616;2023-06-24T09:25:30;24.00;99.90
7720;DHT22;3902;49.474;8.616;2023-06-24T09:28:00;24.00;99.90
7720;DHT22;3902;49.474;8.616;2023-06-24T09:30:26;24.10;99.90
7720;DHT22;3902;49.474;8.616;2023-06-24T09:32:53;24.20;99.90
7720;DHT22;3902;49.474;8.616;2023-06-24T09:35:20;24.30;99.90
7720;DHT22;3902;49.474;8.616;2023-06-24T09:37:50;24.40;99.90
7720;DHT22;3902;49.474;8.616;2023-06-24T09:40:16;24.50;99.90
7720;DHT22;3902;49.474;8.616;2023-06-24T09:42:54;24.70;99.90
7720;DHT22;3902;49.474;8.616;2023-06-24T09:45:25;24.70;99.90
7720;DHT22;3902;49.474;8.616;2023-06-24T09:47:51;24.70;99.90
7720;DHT22;3902;49.474;8.616;2023-06-24T09:50:17;24.80;99.90
7720;DHT22;3902;49.474;8.616;2023-06-24T09:52:45;24.80;99.90
7720;DHT22;3902;49.474;8.616;2023-06-24T09:55:15;24.90;99.90
7720;DHT22;3902;49.474;8.616;2023-06-24T09:57:50;24.90;99.90
7720;DHT22;3902;49.474;8.616;2023-06-24T10:00:18;25.00;99.90
7720;DHT22;3902;49.474;8.616;2023-06-24T10:02:44;25.00;99.90
7720;DHT22;3902;49.474;8.616;2023-06-24T10:05:11;25.10;99.90
7720;DHT22;3902;49.474;8.616;2023-06-24T10:07:39;25.30;99.90
7720;DHT22;3902;49.474;8.616;2023-06-24T10:10:05;25.50;99.90
7720;DHT22;3902;49.474;8.616;2023-06-24T10:12:31;25.60;99.90
7720;DHT22;3902;49.474;8.616;2023-06-24T10:14:58;25.70;99.90
7720;DHT22;3902;49.474;8.616;2023-06-24T10:17:24;25.70;99.90
7720;DHT22;3902;49.474;8.616;2023-06-24T10:19:52;25.70;99.90
7720;DHT22;3902;49.474;8.616;2023-06-24T10:22:22;25.80;99.90
7720;DHT22;3902;49.474;8.616;2023-06-24T10:24:49;25.80;99.90
7720;DHT22;3902;49.474;8.616;2023-06-24T10:27:17;25.90;99.90
7720;DHT22;3902;49.474;8.616;2023-06-24T10:29:51;26.00;99.90
7720;DHT22;3902;49.474;8.616;2023-06-24T10:32:21;26.00;99.90
7720;DHT22;3902;49.474;8.616;2023-06-24T10:34:49;26.10;99.90
7720;DHT22;3902;49.474;8.616;2023-06-24T10:37:26;26.10;99.90
7720;DHT22;3902;49.474;8.616;2023-06-24T10:40:02;26.20;99.90
7720;DHT22;3902;49.474;8.616;2023-06-24T10:42:42;26.30;99.90
7720;DHT22;3902;49.474;8.616;2023-06-24T10:47:38;26.40;99.90
7720;DHT22;3902;49.474;8.616;2023-06-24T10:50:12;26.50;99.90
7720;DHT22;3902;49.474;8.616;2023-06-24T10:52:40;26.50;99.90
7720;DHT22;3902;49.474;8.616;2023-06-24T10:55:06;26.60;99.90
7720;DHT22;3902;49.474;8.616;2023-06-24T10:57:33;26.70;99.90
7720;DHT22;3902;49.474;8.616;2023-06-24T10:59:58;26.80;99.90
7720;DHT22;3902;49.474;8.616;2023-06-24T11:21:29;27.50;99.90
7720;DHT22;3902;49.474;8.616;2023-06-24T11:24:00;27.60;99.90
7720;DHT22;3902;49.474;8.616;2023-06-24T11:26:27;27.80;99.90
7720;DHT22;3902;49.474;8.616;2023-06-24T11:28:53;27.90;99.90
7720;DHT22;3902;49.474;8.616;2023-06-24T11:31:18;28.10;99.50
7720;DHT22;3902;49.474;8.616;2023-06-24T11:33:48;28.10;97.30
7720;DHT22;3902;49.474;8.616;2023-06-24T11:36:17;28.10;97.10
7720;DHT22;3902;49.474;8.616;2023-06-24T11:38:43;28.20;97.40
7720;DHT22;3902;49.474;8.616;2023-06-24T11:41:10;28.10;96.60
7720;DHT22;3902;49.474;8.616;2023-06-24T11:43:36;28.10;96.00
7720;DHT22;3902;49.474;8.616;2023-06-24T11:46:01;28.10;96.40
7720;DHT22;3902;49.474;8.616;2023-06-24T11:48:30;28.20;97.10
7720;DHT22;3902;49.474;8.616;2023-06-24T11:50:56;28.40;98.40
7720;DHT22;3902;49.474;8.616;2023-06-24T11:53:40;28.60;98.00
7720;DHT22;3902;49.474;8.616;2023-06-24T11:56:07;28.90;97.20
7720;DHT22;3902;49.474;8.616;2023-06-24T11:58:34;29.10;96.90
7720;DHT22;3902;49.474;8.616;2023-06-24T12:01:01;29.30;96.80
7720;DHT22;3902;49.474;8.616;2023-06-24T12:03:28;29.40;95.00
7720;DHT22;3902;49.474;8.616;2023-06-24T12:05:54;29.40;94.70
7720;DHT22;3902;49.474;8.616;2023-06-24T12:08:20;29.40;93.70
7720;DHT22;3902;49.474;8.616;2023-06-24T12:10:46;29.40;95.10
7720;DHT22;3902;49.474;8.616;2023-06-24T12:13:12;29.50;92.20
7720;DHT22;3902;49.474;8.616;2023-06-24T12:15:37;29.40;93.60
7720;DHT22;3902;49.474;8.616;2023-06-24T12:18:03;29.60;95.40
7720;DHT22;3902;49.474;8.616;2023-06-24T12:20:29;29.80;95.20
7720;DHT22;3902;49.474;8.616;2023-06-24T12:22:55;29.90;95.20
7720;DHT22;3902;49.474;8.616;2023-06-24T12:25:21;30.10;94.00
7720;DHT22;3902;49.474;8.616;2023-06-24T12:27:47;30.20;94.40
7720;DHT22;3902;49.474;8.616;2023-06-24T12:30:13;30.10;91.60
7720;DHT22;3902;49.474;8.616;2023-06-24T12:32:39;30.30;93.90
7720;DHT22;3902;49.474;8.616;2023-06-24T12:35:06;30.40;94.50
7720;DHT22;3902;49.474;8.616;2023-06-24T12:37:33;30.30;91.50
7720;DHT22;3902;49.474;8.616;2023-06-24T12:39:59;30.10;90.80
7720;DHT22;3902;49.474;8.616;2023-06-24T12:42:26;30.00;90.90
7720;DHT22;3902;49.474;8.616;2023-06-24T12:44:51;29.90;90.30
7720;DHT22;3902;49.474;8.616;2023-06-24T12:47:17;29.80;90.50
7720;DHT22;3902;49.474;8.616;2023-06-24T12:49:43;29.90;92.70
7720;DHT22;3902;49.474;8.616;2023-06-24T12:52:09;30.00;93.10
7720;DHT22;3902;49.474;8.616;2023-06-24T12:54:34;30.10;93.20
7720;DHT22;3902;49.474;8.616;2023-06-24T12:57:01;30.30;93.80
7720;DHT22;3902;49.474;8.616;2023-06-24T12:59:27;30.40;93.20
7720;DHT22;3902;49.474;8.616;2023-06-24T13:01:52;30.50;90.40
7720;DHT22;3902;49.474;8.616;2023-06-24T13:04:18;30.70;91.50
7720;DHT22;3902;49.474;8.616;2023-06-24T13:06:45;30.70;89.20
7720;DHT22;3902;49.474;8.616;2023-06-24T13:09:11;30.70;89.80
7720;DHT22;3902;49.474;8.616;2023-06-24T13:11:37;30.50;89.60
7720;DHT22;3902;49.474;8.616;2023-06-24T13:14:03;30.60;91.50
7720;DHT22;3902;49.474;8.616;2023-06-24T13:16:28;30.60;90.50
7720;DHT22;3902;49.474;8.616;2023-06-24T13:18:54;30.60;88.00
7720;DHT22;3902;49.474;8.616;2023-06-24T13:21:19;30.60;88.80
7720;DHT22;3902;49.474;8.616;2023-06-24T13:23:46;30.80;91.40
7720;DHT22;3902;49.474;8.616;2023-06-24T13:26:12;30.90;90.40
7720;DHT22;3902;49.474;8.616;2023-06-24T13:28:40;31.10;92.10
7720;DHT22;3902;49.474;8.616;2023-06-24T13:31:06;31.20;89.40
7720;DHT22;3902;49.474;8.616;2023-06-24T13:33:31;31.20;88.00
7720;DHT22;3902;49.474;8.616;2023-06-24T13:35:57;31.20;87.60
7720;DHT22;3902;49.474;8.616;2023-06-24T13:38:22;31.30;89.40
7720;DHT22;3902;49.474;8.616;2023-06-24T13:40:48;31.40;88.70
7720;DHT22;3902;49.474;8.616;2023-06-24T13:43:13;31.40;89.10
7720;DHT22;3902;49.474;8.616;2023-06-24T13:45:39;31.30;89.80
7720;DHT22;3902;49.474;8.616;2023-06-24T13:48:04;31.40;89.40
7720;DHT22;3902;49.474;8.616;2023-06-24T13:50:30;31.40;88.20
7720;DHT22;3902;49.474;8.616;2023-06-24T13:52:56;31.50;88.40
7720;DHT22;3902;49.474;8.616;2023-06-24T13:55:21;31.50;90.10
7720;DHT22;3902;49.474;8.616;2023-06-24T13:57:47;31.70;90.70
7720;DHT22;3902;49.474;8.616;2023-06-24T14:00:13;31.80;89.60
7720;DHT22;3902;49.474;8.616;2023-06-24T14:02:40;31.90;90.30
7720;DHT22;3902;49.474;8.616;2023-06-24T14:05:06;32.00;88.10
7720;DHT22;3902;49.474;8.616;2023-06-24T14:07:32;32.10;88.80
7720;DHT22;3902;49.474;8.616;2023-06-24T14:09:57;32.20;86.10
7720;DHT22;3902;49.474;8.616;2023-06-24T14:12:23;32.20;83.20
7720;DHT22;3902;49.474;8.616;2023-06-24T14:14:48;32.10;78.40
7720;DHT22;3902;49.474;8.616;2023-06-24T14:17:14;32.00;83.60
7720;DHT22;3902;49.474;8.616;2023-06-24T14:19:40;32.10;85.00
7720;DHT22;3902;49.474;8.616;2023-06-24T14:22:06;32.20;85.90
7720;DHT22;3902;49.474;8.616;2023-06-24T14:24:32;32.20;86.50
7720;DHT22;3902;49.474;8.616;2023-06-24T14:26:57;32.00;85.50
7720;DHT22;3902;49.474;8.616;2023-06-24T14:29:23;31.90;86.30
7720;DHT22;3902;49.474;8.616;2023-06-24T14:31:49;31.80;86.70
7720;DHT22;3902;49.474;8.616;2023-06-24T14:34:14;31.60;86.00
7720;DHT22;3902;49.474;8.616;2023-06-24T14:36:40;31.40;86.80
7720;DHT22;3902;49.474;8.616;2023-06-24T14:39:06;31.30;88.50
7720;DHT22;3902;49.474;8.616;2023-06-24T14:41:34;31.30;85.00
7720;DHT22;3902;49.474;8.616;2023-06-24T14:44:00;31.30;88.10
7720;DHT22;3902;49.474;8.616;2023-06-24T14:46:25;31.40;89.80
7720;DHT22;3902;49.474;8.616;2023-06-24T14:48:51;31.50;84.10
7720;DHT22;3902;49.474;8.616;2023-06-24T14:51:16;31.60;86.30
7720;DHT22;3902;49.474;8.616;2023-06-24T14:53:42;31.70;83.90
7720;DHT22;3902;49.474;8.616;2023-06-24T14:56:07;31.80;81.60
7720;DHT22;3902;49.474;8.616;2023-06-24T14:58:33;31.90;83.80
7720;DHT22;3902;49.474;8.616;2023-06-24T15:00:59;31.90;82.80
7720;DHT22;3902;49.474;8.616;2023-06-24T15:03:25;31.90;82.20
7720;DHT22;3902;49.474;8.616;2023-06-24T15:05:50;31.80;78.10
7720;DHT22;3902;49.474;8.616;2023-06-24T15:08:16;31.80;82.00
7720;DHT22;3902;49.474;8.616;2023-06-24T15:10:41;31.80;82.20
7720;DHT22;3902;49.474;8.616;2023-06-24T15:13:07;31.80;83.60
7720;DHT22;3902;49.474;8.616;2023-06-24T15:15:32;31.70;84.10
7720;DHT22;3902;49.474;8.616;2023-06-24T15:17:58;31.70;82.40
7720;DHT22;3902;49.474;8.616;2023-06-24T15:20:25;31.80;83.00
7720;DHT22;3902;49.474;8.616;2023-06-24T15:22:50;31.80;81.80
7720;DHT22;3902;49.474;8.616;2023-06-24T15:25:16;31.80;83.90
7720;DHT22;3902;49.474;8.616;2023-06-24T15:27:42;31.90;82.60
7720;DHT22;3902;49.474;8.616;2023-06-24T15:30:07;32.00;83.80
7720;DHT22;3902;49.474;8.616;2023-06-24T15:32:33;32.00;82.60
7720;DHT22;3902;49.474;8.616;2023-06-24T15:35:02;31.90;82.80
7720;DHT22;3902;49.474;8.616;2023-06-24T15:37:27;31.90;80.90
7720;DHT22;3902;49.474;8.616;2023-06-24T15:39:54;31.80;81.80
7720;DHT22;3902;49.474;8.616;2023-06-24T15:42:20;31.70;81.50
7720;DHT22;3902;49.474;8.616;2023-06-24T15:44:45;31.60;81.00
7720;DHT22;3902;49.474;8.616;2023-06-24T15:47:11;31.50;82.00
7720;DHT22;3902;49.474;8.616;2023-06-24T15:49:36;31.40;80.80
7720;DHT22;3902;49.474;8.616;2023-06-24T15:52:02;31.30;82.30
7720;DHT22;3902;49.474;8.616;2023-06-24T15:54:28;31.30;81.90
7720;DHT22;3902;49.474;8.616;2023-06-24T15:56:53;31.30;83.60
7720;DHT22;3902;49.474;8.616;2023-06-24T15:59:19;31.30;83.40
7720;DHT22;3902;49.474;8.616;2023-06-24T16:01:44;31.40;84.00
7720;DHT22;3902;49.474;8.616;2023-06-24T16:04:10;31.40;82.70
7720;DHT22;3902;49.474;8.616;2023-06-24T16:06:35;31.40;82.20
7720;DHT22;3902;49.474;8.616;2023-06-24T16:09:01;31.40;81.10
7720;DHT22;3902;49.474;8.616;2023-06-24T16:11:27;31.40;82.00
7720;DHT22;3902;49.474;8.616;2023-06-24T16:13:52;31.40;82.80
7720;DHT22;3902;49.474;8.616;2023-06-24T16:16:18;31.40;82.60
7720;DHT22;3902;49.474;8.616;2023-06-24T16:18:43;31.50;82.30
7720;DHT22;3902;49.474;8.616;2023-06-24T16:21:09;31.40;80.60
7720;DHT22;3902;49.474;8.616;2023-06-24T16:23:34;31.30;78.50
7720;DHT22;3902;49.474;8.616;2023-06-24T16:26:00;31.30;79.10
7720;DHT22;3902;49.474;8.616;2023-06-24T16:28:26;31.30;79.40